Time;durP1;ratioP1;P1;durP2;ratioP2;P2;SDS_P1;SDS_P2;PMS_P1;PMS_P2;Temp;Humidity;BMP_temperature;BMP_pressure;BME280_temperature;BME280_humidity;BME280_pressure;Samples;Min_cycle;Max_cycle;Signal;HPM_P1;HPM_P2
2022/11/08 00:01:31;;;;;;;13.48;3.35;;;;;;;;;;5092383;28;20044;-72
2022/11/08 00:03:57;;;;;;;15.50;3.97;;;;;;;;;;5097265;27;20133;-72
2022/11/08 00:14:37;;;;;;;11.05;3.17;;;;;;;;;;5088215;27;20059;-72
2022/11/08 00:17:03;;;;;;;14.05;3.25;;;;;;;;;;5101258;27;20040;-72
2022/11/08 00:19:29;;;;;;;15.48;3.58;;;;;;;;;;5116293;27;20127;-74
2022/11/08 00:21:55;;;;;;;14.45;3.58;;;;;;;;;;5103435;27;20100;-74
2022/11/08 00:24:21;;;;;;;9.02;3.22;;;;;;;;;;5094304;28;20063;-74
2022/11/08 00:26:47;;;;;;;13.10;3.30;;;;;;;;;;5092510;27;20044;-72
2022/11/08 00:29:13;;;;;;;14.43;4.10;;;;;;;;;;5094257;28;20043;-74
2022/11/08 00:31:39;;;;;;;15.25;3.22;;;;;;;;;;5094894;27;20055;-74
2022/11/08 00:34:05;;;;;;;15.98;3.28;;;;;;;;;;5090849;27;20513;-72
2022/11/08 00:36:31;;;;;;;13.85;3.05;;;;;;;;;;5089402;28;20105;-74
2022/11/08 00:38:57;;;;;;;11.27;2.97;;;;;;;;;;5091945;27;20134;-72
2022/11/08 00:41:23;;;;;;;18.75;2.95;;;;;;;;;;5096940;27;20052;-72
2022/11/08 00:43:49;;;;;;;9.05;2.65;;;;;;;;;;5098865;28;20088;-73
2022/11/08 00:46:15;;;;;;;14.57;3.45;;;;;;;;;;5093116;28;20047;-72
2022/11/08 00:48:41;;;;;;;11.45;3.15;;;;;;;;;;5096646;28;20082;-72
2022/11/08 00:51:09;;;;;;;9.57;2.83;;;;;;;;;;5094749;28;20631;-72
2022/11/08 00:53:38;;;;;;;11.52;3.10;;;;;;;;;;5090959;28;20054;-72
2022/11/08 00:56:06;;;;;;;11.27;2.88;;;;;;;;;;5097302;28;20172;-73
2022/11/08 00:58:32;;;;;;;12.45;3.15;;;;;;;;;;5090607;28;20044;-71
2022/11/08 01:00:58;;;;;;;13.57;3.13;;;;;;;;;;5093448;28;20106;-73
2022/11/08 01:03:24;;;;;;;13.05;3.30;;;;;;;;;;5095612;28;20046;-72
2022/11/08 01:05:52;;;;;;;13.88;3.47;;;;;;;;;;5090563;28;20047;-72
2022/11/08 01:08:19;;;;;;;15.73;3.53;;;;;;;;;;5099462;28;20743;-71
2022/11/08 01:10:47;;;;;;;14.77;3.38;;;;;;;;;;5077317;28;20082;-73
2022/11/08 01:13:13;;;;;;;13.43;3.65;;;;;;;;;;5097618;28;20565;-73
2022/11/08 01:15:40;;;;;;;12.30;2.72;;;;;;;;;;5089965;28;20036;-72
2022/11/08 01:18:06;;;;;;;11.65;2.70;;;;;;;;;;5094794;28;20410;-71
2022/11/08 01:20:33;;;;;;;13.23;3.38;;;;;;;;;;5097347;28;20080;-71
2022/11/08 01:22:59;;;;;;;14.05;2.67;;;;;;;;;;5092361;28;20036;-71
2022/11/08 01:25:25;;;;;;;11.23;3.17;;;;;;;;;;5094777;28;20071;-73
2022/11/08 01:27:51;;;;;;;15.05;3.40;;;;;;;;;;5094943;27;20060;-74
2022/11/08 01:30:17;;;;;;;13.15;3.35;;;;;;;;;;5096419;27;20048;-73
2022/11/08 01:32:43;;;;;;;18.70;3.35;;;;;;;;;;5097401;27;20102;-71
2022/11/08 01:35:09;;;;;;;13.60;3.13;;;;;;;;;;5100371;27;20078;-73
2022/11/08 01:37:35;;;;;;;14.50;3.40;;;;;;;;;;5094741;27;20051;-72
2022/11/08 01:40:01;;;;;;;12.65;3.03;;;;;;;;;;5096157;27;20078;-71
2022/11/08 01:42:28;;;;;;;13.43;3.20;;;;;;;;;;5095678;28;20074;-72
2022/11/08 01:44:57;;;;;;;10.25;3.45;;;;;;;;;;5080602;28;20044;-73
2022/11/08 01:47:23;;;;;;;12.07;2.97;;;;;;;;;;5103038;27;20048;-73
2022/11/08 01:49:51;;;;;;;14.40;3.03;;;;;;;;;;5094121;27;20044;-73
2022/11/08 01:52:24;;;;;;;11.15;2.92;;;;;;;;;;5098590;27;20127;-72
2022/11/08 01:55:12;;;;;;;13.10;3.10;;;;;;;;;;5101109;28;20439;-73
2022/11/08 01:57:55;;;;;;;11.20;3.42;;;;;;;;;;5097165;27;20052;-73
2022/11/08 02:00:21;;;;;;;16.35;3.17;;;;;;;;;;5099364;27;20036;-73
2022/11/08 02:02:52;;;;;;;10.07;3.33;;;;;;;;;;5094747;27;20141;-73
2022/11/08 02:05:25;;;;;;;14.25;3.55;;;;;;;;;;5095653;27;20501;-72
2022/11/08 02:07:56;;;;;;;15.60;3.38;;;;;;;;;;5097677;27;20056;-74
2022/11/08 02:10:24;;;;;;;11.37;2.80;;;;;;;;;;5096743;27;20043;-74
2022/11/08 02:12:51;;;;;;;11.48;3.20;;;;;;;;;;5100140;27;20140;-73
2022/11/08 02:15:17;;;;;;;9.90;2.92;;;;;;;;;;5094316;27;20044;-74
2022/11/08 02:17:43;;;;;;;15.10;3.05;;;;;;;;;;5098032;27;20044;-73
2022/11/08 02:20:10;;;;;;;15.20;3.60;;;;;;;;;;5096805;27;20058;-74
2022/11/08 02:22:40;;;;;;;12.68;3.25;;;;;;;;;;5092485;27;20040;-72
2022/11/08 02:25:06;;;;;;;13.55;3.33;;;;;;;;;;5099952;28;20429;-72
2022/11/08 02:27:32;;;;;;;16.00;3.30;;;;;;;;;;5096634;27;20051;-73
2022/11/08 02:29:58;;;;;;;15.32;3.20;;;;;;;;;;5095465;28;20036;-74
2022/11/08 02:32:24;;;;;;;16.38;2.97;;;;;;;;;;5096256;27;20055;-74
2022/11/08 02:34:55;;;;;;;13.00;3.00;;;;;;;;;;5093709;28;20123;-74
2022/11/08 02:37:22;;;;;;;17.23;3.63;;;;;;;;;;5099166;27;20101;-73
2022/11/08 02:39:50;;;;;;;11.75;2.80;;;;;;;;;;5095819;27;20391;-74
2022/11/08 02:42:17;;;;;;;14.32;4.13;;;;;;;;;;5098385;27;20107;-73
2022/11/08 02:44:43;;;;;;;15.10;3.05;;;;;;;;;;5097553;27;20126;-73
2022/11/08 02:47:09;;;;;;;9.48;2.85;;;;;;;;;;5095745;27;20039;-73
2022/11/08 02:49:35;;;;;;;13.18;3.55;;;;;;;;;;5094780;28;20040;-73
2022/11/08 02:52:02;;;;;;;16.90;3.28;;;;;;;;;;5096280;27;20053;-73
2022/11/08 02:54:28;;;;;;;13.55;3.00;;;;;;;;;;5097617;27;20039;-74
2022/11/08 02:56:54;;;;;;;14.25;3.58;;;;;;;;;;5103377;27;20039;-73
2022/11/08 02:59:19;;;;;;;13.63;3.00;;;;;;;;;;5078872;28;20056;-70
2022/11/08 03:01:45;;;;;;;15.25;3.40;;;;;;;;;;5091928;28;20040;-72
2022/11/08 03:04:11;;;;;;;15.93;3.47;;;;;;;;;;5082574;28;20105;-74
2022/11/08 03:06:37;;;;;;;14.63;3.08;;;;;;;;;;5098835;27;20046;-73
2022/11/08 03:09:03;;;;;;;12.10;3.08;;;;;;;;;;5096737;27;20032;-73
2022/11/08 03:11:29;;;;;;;12.52;2.67;;;;;;;;;;5096964;28;22259;-71
2022/11/08 03:13:55;;;;;;;11.43;3.47;;;;;;;;;;5077711;28;20048;-73
2022/11/08 03:16:21;;;;;;;11.25;3.17;;;;;;;;;;5096574;27;20046;-73
2022/11/08 03:18:47;;;;;;;10.45;3.47;;;;;;;;;;5098885;27;20040;-72
2022/11/08 03:21:14;;;;;;;15.25;3.72;;;;;;;;;;5075695;27;20135;-72
2022/11/08 03:23:40;;;;;;;13.43;3.85;;;;;;;;;;5095454;28;20055;-72
2022/11/08 03:26:06;;;;;;;14.73;3.35;;;;;;;;;;5100260;27;20047;-72
2022/11/08 03:28:32;;;;;;;13.68;3.45;;;;;;;;;;5094237;28;20134;-72
2022/11/08 03:30:58;;;;;;;10.43;3.28;;;;;;;;;;5098389;27;20118;-72
2022/11/08 03:33:24;;;;;;;16.95;3.38;;;;;;;;;;5094777;28;20047;-72
2022/11/08 03:35:51;;;;;;;10.82;3.10;;;;;;;;;;5093604;28;20036;-72
2022/11/08 03:38:17;;;;;;;13.60;4.32;;;;;;;;;;5077988;28;20127;-73
2022/11/08 03:40:43;;;;;;;15.57;3.45;;;;;;;;;;5093050;27;20264;-72
2022/11/08 03:43:09;;;;;;;12.02;3.85;;;;;;;;;;5096299;28;20604;-71
2022/11/08 03:45:35;;;;;;;11.48;3.30;;;;;;;;;;5093226;27;20058;-72
2022/11/08 03:48:01;;;;;;;11.38;3.60;;;;;;;;;;5099287;27;20122;-72
2022/11/08 03:50:27;;;;;;;9.93;2.95;;;;;;;;;;5097165;27;20052;-72
2022/11/08 03:52:53;;;;;;;9.77;3.60;;;;;;;;;;5094851;27;20184;-72
2022/11/08 03:55:20;;;;;;;9.18;2.88;;;;;;;;;;5094823;27;20040;-72
2022/11/08 03:57:47;;;;;;;17.85;3.35;;;;;;;;;;5075630;28;20051;-72
2022/11/08 04:00:14;;;;;;;12.93;3.70;;;;;;;;;;5098779;28;20062;-72
2022/11/08 04:02:40;;;;;;;12.15;3.45;;;;;;;;;;5096639;27;20040;-72
2022/11/08 04:05:07;;;;;;;11.70;3.08;;;;;;;;;;5091479;27;20094;-71
2022/11/08 04:07:33;;;;;;;9.07;2.80;;;;;;;;;;5094168;27;20121;-71
2022/11/08 04:09:59;;;;;;;11.38;3.30;;;;;;;;;;5093674;27;20078;-74
2022/11/08 04:15:16;;;;;;;11.75;3.00;;;;;;;;;;5092528;27;20067;-74
2022/11/08 04:23:13;;;;;;;11.30;3.00;;;;;;;;;;5097594;27;20048;-76
2022/11/08 04:25:39;;;;;;;12.23;2.80;;;;;;;;;;5093805;27;20043;-72
2022/11/08 04:28:06;;;;;;;11.13;2.95;;;;;;;;;;5095473;28;20058;-71
2022/11/08 04:30:31;;;;;;;8.52;2.78;;;;;;;;;;5095481;28;20044;-71
2022/11/08 04:33:01;;;;;;;10.65;2.70;;;;;;;;;;5093325;27;20793;-72
2022/11/08 04:35:27;;;;;;;10.20;2.90;;;;;;;;;;5097110;28;20048;-72
2022/11/08 04:37:57;;;;;;;11.50;2.85;;;;;;;;;;5095066;27;20051;-71
2022/11/08 04:40:23;;;;;;;10.98;3.15;;;;;;;;;;5096050;28;20046;-72
2022/11/08 04:42:49;;;;;;;11.30;3.10;;;;;;;;;;5090453;28;20039;-72
2022/11/08 04:45:15;;;;;;;10.05;3.00;;;;;;;;;;5097475;28;20046;-73
2022/11/08 04:47:41;;;;;;;7.88;2.83;;;;;;;;;;5093014;28;20048;-73
2022/11/08 04:50:07;;;;;;;9.48;2.92;;;;;;;;;;5096216;28;20390;-73
2022/11/08 04:52:33;;;;;;;9.45;2.83;;;;;;;;;;5094232;27;20047;-73
2022/11/08 04:54:59;;;;;;;9.18;2.88;;;;;;;;;;5097386;28;20481;-73
2022/11/08 04:57:25;;;;;;;10.30;2.97;;;;;;;;;;5100378;28;20105;-73
2022/11/08 04:59:51;;;;;;;9.25;2.72;;;;;;;;;;5093119;28;20051;-72
2022/11/08 05:02:17;;;;;;;7.90;2.70;;;;;;;;;;5091746;28;20081;-71
2022/11/08 05:04:43;;;;;;;11.27;2.75;;;;;;;;;;5096126;28;20051;-71
2022/11/08 05:07:09;;;;;;;8.45;2.65;;;;;;;;;;5096355;28;20056;-71
2022/11/08 05:09:35;;;;;;;11.00;3.38;;;;;;;;;;5094083;28;20037;-72
2022/11/08 05:12:01;;;;;;;10.73;2.92;;;;;;;;;;5099725;28;20657;-71
2022/11/08 05:14:27;;;;;;;8.27;2.70;;;;;;;;;;5096299;27;20044;-73
2022/11/08 05:16:53;;;;;;;9.50;2.63;;;;;;;;;;5093583;28;20128;-71
2022/11/08 05:23:22;;;;;;;8.82;2.30;;;;;;;;;;5100398;28;20051;-72
2022/11/08 05:24:49;;;;;;;10.50;3.13;;;;;;;;;;5089565;28;20047;-71
2022/11/08 05:27:15;;;;;;;11.00;2.67;;;;;;;;;;5093920;28;20043;-73
2022/11/08 05:29:41;;;;;;;9.68;2.95;;;;;;;;;;5097323;28;20078;-73
2022/11/08 05:32:07;;;;;;;10.90;2.70;;;;;;;;;;5098619;28;20405;-74
2022/11/08 05:34:33;;;;;;;10.43;3.20;;;;;;;;;;5093573;28;20044;-71
2022/11/08 05:36:59;;;;;;;9.15;2.50;;;;;;;;;;5093324;28;20101;-70
2022/11/08 05:39:25;;;;;;;12.75;2.70;;;;;;;;;;5090744;28;20057;-73
2022/11/08 05:41:51;;;;;;;7.60;2.70;;;;;;;;;;5095115;28;20048;-73
2022/11/08 05:44:17;;;;;;;9.35;3.00;;;;;;;;;;5091626;28;20097;-73
2022/11/08 05:46:43;;;;;;;9.63;2.58;;;;;;;;;;5092011;28;20044;-73
2022/11/08 05:49:09;;;;;;;8.27;3.10;;;;;;;;;;5098382;28;20061;-72
2022/11/08 05:51:35;;;;;;;10.15;2.78;;;;;;;;;;5091392;28;20066;-71
2022/11/08 05:54:01;;;;;;;11.60;2.78;;;;;;;;;;5092536;28;20059;-74
2022/11/08 05:56:27;;;;;;;11.02;2.40;;;;;;;;;;5094472;28;20048;-73
2022/11/08 05:58:53;;;;;;;9.40;2.70;;;;;;;;;;5093370;28;20056;-72
2022/11/08 06:01:19;;;;;;;11.13;2.50;;;;;;;;;;5087506;28;20043;-73
2022/11/08 06:03:46;;;;;;;8.38;2.45;;;;;;;;;;5093415;28;20055;-72
2022/11/08 06:06:16;;;;;;;9.95;2.90;;;;;;;;;;5093480;28;20056;-73
2022/11/08 06:08:43;;;;;;;7.72;2.53;;;;;;;;;;5090102;28;20124;-71
2022/11/08 06:11:13;;;;;;;9.52;2.80;;;;;;;;;;5078634;28;20465;-73
2022/11/08 06:13:40;;;;;;;11.98;2.72;;;;;;;;;;5096003;28;20139;-73
2022/11/08 06:16:07;;;;;;;9.10;3.08;;;;;;;;;;5094693;28;20046;-72
2022/11/08 06:18:34;;;;;;;7.95;2.95;;;;;;;;;;5091454;27;20047;-71
2022/11/08 06:21:00;;;;;;;7.80;2.95;;;;;;;;;;5093439;28;20092;-73
2022/11/08 06:23:27;;;;;;;13.23;3.25;;;;;;;;;;5102571;27;20485;-72
2022/11/08 06:25:53;;;;;;;10.77;3.30;;;;;;;;;;5094958;27;20043;-72
2022/11/08 06:28:18;;;;;;;10.00;2.95;;;;;;;;;;5098219;27;20062;-70
2022/11/08 06:30:45;;;;;;;12.23;3.30;;;;;;;;;;5095581;27;20043;-72
2022/11/08 06:33:10;;;;;;;10.07;3.80;;;;;;;;;;5096918;27;20057;-72
2022/11/08 06:35:37;;;;;;;8.07;3.22;;;;;;;;;;5096386;28;20048;-72
2022/11/08 06:38:03;;;;;;;8.35;3.60;;;;;;;;;;5094135;27;20117;-73
2022/11/08 06:40:31;;;;;;;11.30;3.47;;;;;;;;;;5094444;28;20171;-70
2022/11/08 06:42:57;;;;;;;9.05;3.50;;;;;;;;;;5101356;27;20031;-72
2022/11/08 06:45:24;;;;;;;11.65;3.80;;;;;;;;;;5095777;28;20042;-72
2022/11/08 06:47:55;;;;;;;9.70;3.55;;;;;;;;;;5107184;27;20072;-73
2022/11/08 06:50:21;;;;;;;9.27;3.35;;;;;;;;;;5109146;27;20050;-73
2022/11/08 06:52:47;;;;;;;9.93;3.70;;;;;;;;;;5108629;27;20405;-73
2022/11/08 06:55:13;;;;;;;8.93;3.50;;;;;;;;;;5104416;27;20035;-71
2022/11/08 06:57:39;;;;;;;14.18;3.78;;;;;;;;;;5094322;27;20055;-73
2022/11/08 07:00:05;;;;;;;8.60;3.35;;;;;;;;;;5093662;27;20044;-74
2022/11/08 07:02:31;;;;;;;9.52;3.40;;;;;;;;;;5091068;27;20070;-71
2022/11/08 07:04:57;;;;;;;9.05;3.28;;;;;;;;;;5093657;27;20513;-72
2022/11/08 07:07:23;;;;;;;7.97;3.10;;;;;;;;;;5095169;28;20097;-72
2022/11/08 07:09:49;;;;;;;6.78;3.10;;;;;;;;;;5113982;27;20447;-72
2022/11/08 07:12:15;;;;;;;9.13;3.33;;;;;;;;;;5111562;27;20143;-73
2022/11/08 07:14:41;;;;;;;9.73;3.40;;;;;;;;;;5102416;27;20051;-73
2022/11/08 07:17:07;;;;;;;8.80;3.00;;;;;;;;;;5116068;27;20039;-73
2022/11/08 07:19:33;;;;;;;8.90;3.00;;;;;;;;;;5111176;27;20054;-72
2022/11/08 07:21:59;;;;;;;11.57;3.05;;;;;;;;;;5117369;27;20043;-72
2022/11/08 07:24:25;;;;;;;8.93;2.95;;;;;;;;;;5104466;28;20105;-72
2022/11/08 07:26:51;;;;;;;12.38;3.33;;;;;;;;;;5107581;27;20050;-72
2022/11/08 07:29:17;;;;;;;7.15;2.75;;;;;;;;;;5107016;27;20050;-73
2022/11/08 07:31:43;;;;;;;7.75;3.08;;;;;;;;;;5103091;27;20046;-73
2022/11/08 07:34:09;;;;;;;8.10;2.88;;;;;;;;;;5103430;27;20414;-73
2022/11/08 07:36:35;;;;;;;7.25;2.70;;;;;;;;;;5102654;28;20052;-73
2022/11/08 07:39:01;;;;;;;8.70;2.92;;;;;;;;;;5116881;27;20100;-73
2022/11/08 07:41:27;;;;;;;7.28;2.78;;;;;;;;;;5119553;27;20039;-72
2022/11/08 07:43:53;;;;;;;5.80;2.50;;;;;;;;;;5108571;27;20066;-73
2022/11/08 07:46:19;;;;;;;5.07;2.28;;;;;;;;;;5112020;27;20193;-73
2022/11/08 07:48:45;;;;;;;8.32;2.70;;;;;;;;;;5097044;27;20043;-72
2022/11/08 07:51:11;;;;;;;9.50;2.85;;;;;;;;;;5118266;27;20103;-71
2022/11/08 07:53:37;;;;;;;6.00;2.50;;;;;;;;;;5112747;27;20417;-72
2022/11/08 07:56:03;;;;;;;6.85;2.60;;;;;;;;;;5108342;27;20051;-72
2022/11/08 07:58:29;;;;;;;8.07;2.42;;;;;;;;;;5112857;27;20043;-71
2022/11/08 08:00:59;;;;;;;10.75;2.70;;;;;;;;;;5112789;27;20054;-71
2022/11/08 08:03:25;;;;;;;11.15;3.03;;;;;;;;;;5105696;27;20117;-73
2022/11/08 08:05:52;;;;;;;6.68;2.65;;;;;;;;;;5115047;27;20781;-73
2022/11/08 08:08:18;;;;;;;9.35;3.05;;;;;;;;;;5103503;27;20058;-73
2022/11/08 08:10:44;;;;;;;6.10;2.38;;;;;;;;;;5101563;27;20040;-72
2022/11/08 08:13:10;;;;;;;5.75;2.35;;;;;;;;;;5108303;27;20043;-73
2022/11/08 08:15:36;;;;;;;6.60;2.42;;;;;;;;;;5095384;28;20505;-73
2022/11/08 08:18:03;;;;;;;5.35;2.47;;;;;;;;;;5100997;27;20047;-72
2022/11/08 08:20:30;;;;;;;9.98;2.63;;;;;;;;;;5103942;27;20043;-72
2022/11/08 08:22:56;;;;;;;7.22;2.40;;;;;;;;;;5112271;27;20126;-72
2022/11/08 08:25:23;;;;;;;6.20;2.65;;;;;;;;;;5115024;27;20046;-72
2022/11/08 08:27:50;;;;;;;4.43;2.38;;;;;;;;;;5107940;27;20054;-72
2022/11/08 08:30:16;;;;;;;5.78;2.55;;;;;;;;;;5101586;27;20100;-72
2022/11/08 08:32:42;;;;;;;6.45;2.38;;;;;;;;;;5107243;27;20043;-71
2022/11/08 08:35:09;;;;;;;5.35;2.25;;;;;;;;;;5112720;27;20097;-72
2022/11/08 08:37:35;;;;;;;6.38;3.05;;;;;;;;;;5104778;27;20066;-72
2022/11/08 08:40:00;;;;;;;6.10;2.00;;;;;;;;;;5113348;27;20055;-70
2022/11/08 08:42:26;;;;;;;7.88;2.60;;;;;;;;;;5109391;27;20150;-71
2022/11/08 08:44:52;;;;;;;5.55;2.40;;;;;;;;;;5112112;27;20048;-71
2022/11/08 08:47:19;;;;;;;5.57;2.40;;;;;;;;;;5105398;27;20069;-72
2022/11/08 08:49:44;;;;;;;9.43;2.50;;;;;;;;;;5106021;28;20047;-72
2022/11/08 08:52:10;;;;;;;7.30;2.53;;;;;;;;;;5105258;27;20581;-70
2022/11/08 08:54:36;;;;;;;5.93;2.47;;;;;;;;;;5106944;28;20077;-70
2022/11/08 08:57:02;;;;;;;7.30;2.70;;;;;;;;;;5108092;27;20059;-70
2022/11/08 08:59:29;;;;;;;3.55;2.25;;;;;;;;;;5111324;27;20052;-70
2022/11/08 09:01:55;;;;;;;5.25;2.50;;;;;;;;;;5115899;28;20413;-70
2022/11/08 09:04:21;;;;;;;7.28;2.65;;;;;;;;;;5101424;28;20533;-70
2022/11/08 09:06:47;;;;;;;5.97;2.47;;;;;;;;;;5094254;28;20044;-70
2022/11/08 09:09:13;;;;;;;4.57;2.10;;;;;;;;;;5107631;27;20039;-70
2022/11/08 09:11:39;;;;;;;5.68;2.38;;;;;;;;;;5109885;28;20035;-70
2022/11/08 09:14:05;;;;;;;4.05;2.15;;;;;;;;;;5107368;28;20402;-73
2022/11/08 09:16:31;;;;;;;7.55;2.28;;;;;;;;;;5104217;28;20052;-70
2022/11/08 09:18:56;;;;;;;5.60;2.30;;;;;;;;;;5113370;28;20117;-72
2022/11/08 09:21:22;;;;;;;7.95;2.42;;;;;;;;;;5098381;28;20047;-69
2022/11/08 09:23:48;;;;;;;7.53;2.22;;;;;;;;;;5102321;28;20043;-70
2022/11/08 09:26:14;;;;;;;3.53;2.00;;;;;;;;;;5106734;28;20047;-70
2022/11/08 09:28:40;;;;;;;7.10;2.22;;;;;;;;;;5104678;28;20040;-70
2022/11/08 09:31:10;;;;;;;7.95;2.50;;;;;;;;;;5100514;28;20475;-70
2022/11/08 09:33:37;;;;;;;7.13;2.30;;;;;;;;;;5095145;28;20383;-71
2022/11/08 09:36:06;;;;;;;5.28;2.40;;;;;;;;;;5101009;28;20040;-70
2022/11/08 09:38:32;;;;;;;5.00;2.33;;;;;;;;;;5107613;28;20043;-70
2022/11/08 09:41:15;;;;;;;4.45;2.08;;;;;;;;;;5111467;28;20501;-70
2022/11/08 09:43:45;;;;;;;5.90;2.08;;;;;;;;;;5098423;28;20035;-69
2022/11/08 09:46:17;;;;;;;4.15;1.95;;;;;;;;;;5094033;28;20036;-70
2022/11/08 09:48:44;;;;;;;7.88;2.10;;;;;;;;;;5112819;27;20047;-69
2022/11/08 09:51:12;;;;;;;3.72;2.08;;;;;;;;;;5124902;27;20162;-69
2022/11/08 09:53:58;;;;;;;5.53;2.38;;;;;;;;;;5123217;27;20721;-69
2022/11/08 09:56:29;;;;;;;2.63;1.83;;;;;;;;;;5125482;27;20051;-69
2022/11/08 09:59:02;;;;;;;4.05;1.73;;;;;;;;;;5119691;27;20048;-70
2022/11/08 10:01:30;;;;;;;4.28;1.92;;;;;;;;;;5117417;27;20055;-69
2022/11/08 10:03:58;;;;;;;4.72;1.92;;;;;;;;;;5106674;27;20051;-70
2022/11/08 10:06:57;;;;;;;4.78;2.03;;;;;;;;;;5119876;27;20039;-70
2022/11/08 10:09:42;;;;;;;5.05;2.28;;;;;;;;;;5052563;27;20039;-70
2022/11/08 10:12:20;;;;;;;4.30;2.10;;;;;;;;;;5119815;27;20521;-70
2022/11/08 10:15:05;;;;;;;6.00;2.00;;;;;;;;;;5113020;27;20046;-70
2022/11/08 10:17:41;;;;;;;8.98;2.05;;;;;;;;;;5108002;27;20565;-70
2022/11/08 10:20:26;;;;;;;3.95;2.13;;;;;;;;;;5104170;27;20134;-71
2022/11/08 10:23:31;;;;;;;8.00;1.85;;;;;;;;;;5108100;27;20043;-69
2022/11/08 10:26:02;;;;;;;5.97;2.17;;;;;;;;;;5028974;28;20496;-72
2022/11/08 10:28:32;;;;;;;3.85;2.30;;;;;;;;;;5032900;28;20125;-71
2022/11/08 10:30:58;;;;;;;4.28;1.90;;;;;;;;;;5081314;27;20048;-71
2022/11/08 10:33:28;;;;;;;5.43;1.92;;;;;;;;;;5114310;27;20077;-72
2022/11/08 10:35:59;;;;;;;6.07;1.98;;;;;;;;;;5107486;28;20031;-71
2022/11/08 10:39:01;;;;;;;6.63;1.88;;;;;;;;;;5103271;27;20035;-72
2022/11/08 10:41:30;;;;;;;3.55;1.92;;;;;;;;;;5037082;28;20056;-72
2022/11/08 10:44:01;;;;;;;4.85;1.63;;;;;;;;;;5089520;28;20043;-72
2022/11/08 10:46:34;;;;;;;5.30;1.77;;;;;;;;;;5105476;27;20096;-72
2022/11/08 10:49:19;;;;;;;6.13;2.03;;;;;;;;;;5115940;27;20074;-70
2022/11/08 10:51:46;;;;;;;2.30;1.60;;;;;;;;;;5105666;27;20052;-72
2022/11/08 10:54:31;;;;;;;5.47;2.35;;;;;;;;;;5120148;27;20648;-68
2022/11/08 10:56:57;;;;;;;4.95;1.70;;;;;;;;;;5094446;27;20036;-71
2022/11/08 10:59:30;;;;;;;5.68;2.17;;;;;;;;;;5115443;27;20075;-72
2022/11/08 11:01:56;;;;;;;3.70;2.25;;;;;;;;;;5111843;27;20459;-71
2022/11/08 11:04:30;;;;;;;3.53;1.60;;;;;;;;;;5108862;27;20043;-72
2022/11/08 11:07:03;;;;;;;3.05;1.70;;;;;;;;;;5111509;27;20039;-71
2022/11/08 11:09:29;;;;;;;3.22;1.63;;;;;;;;;;5108234;27;20450;-71
2022/11/08 11:12:00;;;;;;;4.82;1.80;;;;;;;;;;5108224;28;20123;-71
2022/11/08 11:14:26;;;;;;;4.25;1.75;;;;;;;;;;5105121;27;20436;-70
2022/11/08 11:17:02;;;;;;;7.32;1.80;;;;;;;;;;5101439;27;20083;-71
2022/11/08 11:19:28;;;;;;;4.45;1.90;;;;;;;;;;5102059;27;20044;-71
2022/11/08 11:22:02;;;;;;;5.22;2.13;;;;;;;;;;5106269;27;20043;-71
2022/11/08 11:24:28;;;;;;;2.97;1.73;;;;;;;;;;5101875;27;20047;-72
2022/11/08 11:26:57;;;;;;;5.57;1.95;;;;;;;;;;5120852;27;20101;-71
2022/11/08 11:29:26;;;;;;;3.80;1.85;;;;;;;;;;5110417;27;20055;-72
2022/11/08 11:31:53;;;;;;;6.18;1.85;;;;;;;;;;5090019;28;20043;-72
2022/11/08 11:34:19;;;;;;;2.92;1.70;;;;;;;;;;5106657;27;20486;-72
2022/11/08 11:36:49;;;;;;;5.43;1.90;;;;;;;;;;5105332;27;20043;-71
2022/11/08 11:39:21;;;;;;;2.80;1.58;;;;;;;;;;5107484;27;20055;-72
2022/11/08 11:41:52;;;;;;;4.93;1.90;;;;;;;;;;5107791;27;20460;-72
2022/11/08 11:44:25;;;;;;;4.28;1.95;;;;;;;;;;5107557;28;20039;-72
2022/11/08 11:47:14;;;;;;;6.10;1.92;;;;;;;;;;5101643;27;20056;-72
2022/11/08 11:49:42;;;;;;;4.72;1.80;;;;;;;;;;5091324;28;20079;-72
2022/11/08 11:52:16;;;;;;;3.60;1.85;;;;;;;;;;5105910;27;20118;-72
2022/11/08 11:54:42;;;;;;;5.53;1.90;;;;;;;;;;5109551;28;20047;-71
2022/11/08 11:57:12;;;;;;;3.30;1.75;;;;;;;;;;5108626;27;20544;-71
2022/11/08 11:59:50;;;;;;;5.22;1.70;;;;;;;;;;5112785;27;20100;-69
2022/11/08 12:02:19;;;;;;;3.47;1.50;;;;;;;;;;5100885;27;20044;-69
2022/11/08 12:04:58;;;;;;;5.38;1.83;;;;;;;;;;5106652;28;20040;-69
2022/11/08 12:07:26;;;;;;;4.13;1.60;;;;;;;;;;5104733;27;20052;-69
2022/11/08 12:09:55;;;;;;;4.47;1.75;;;;;;;;;;5109049;27;20047;-69
2022/11/08 12:12:31;;;;;;;3.88;2.10;;;;;;;;;;5102311;28;20071;-72
2022/11/08 12:15:05;;;;;;;4.40;2.08;;;;;;;;;;5109774;27;20032;-69
2022/11/08 12:17:41;;;;;;;3.88;1.70;;;;;;;;;;5101956;27;20085;-70
2022/11/08 12:20:07;;;;;;;4.88;1.85;;;;;;;;;;5107193;27;20043;-70
2022/11/08 12:22:43;;;;;;;5.72;1.70;;;;;;;;;;5101069;27;20601;-69
2022/11/08 12:25:21;;;;;;;3.22;1.70;;;;;;;;;;5107741;27;20090;-69
2022/11/08 12:27:56;;;;;;;4.68;1.80;;;;;;;;;;5115196;27;20043;-69
2022/11/08 12:30:29;;;;;;;5.97;2.05;;;;;;;;;;5102543;27;20142;-70
2022/11/08 12:33:13;;;;;;;4.80;1.73;;;;;;;;;;5107166;27;20437;-69
2022/11/08 12:35:58;;;;;;;5.85;1.85;;;;;;;;;;5109691;27;20418;-69
2022/11/08 12:38:33;;;;;;;4.78;1.75;;;;;;;;;;5101188;27;20126;-69
2022/11/08 12:41:11;;;;;;;5.00;1.70;;;;;;;;;;5105422;28;20047;-72
2022/11/08 12:43:45;;;;;;;6.03;1.67;;;;;;;;;;5103166;27;20083;-70
2022/11/08 12:46:17;;;;;;;3.20;1.65;;;;;;;;;;5105858;27;20050;-69
2022/11/08 12:48:49;;;;;;;5.97;2.20;;;;;;;;;;5109385;28;20043;-70
2022/11/08 12:51:23;;;;;;;4.43;2.00;;;;;;;;;;5109998;27;20043;-69
2022/11/08 12:54:08;;;;;;;3.58;2.08;;;;;;;;;;5099615;28;20397;-69
2022/11/08 12:56:39;;;;;;;3.75;1.83;;;;;;;;;;5112744;27;20047;-69
2022/11/08 12:59:14;;;;;;;6.55;2.00;;;;;;;;;;5112283;28;20079;-69
2022/11/08 13:01:40;;;;;;;6.00;2.10;;;;;;;;;;5103134;28;20047;-69
2022/11/08 13:04:19;;;;;;;5.95;1.90;;;;;;;;;;5110036;28;20434;-71
2022/11/08 13:07:02;;;;;;;7.18;1.90;;;;;;;;;;5106526;28;20047;-73
2022/11/08 13:09:51;;;;;;;6.13;1.75;;;;;;;;;;5102616;28;20514;-72
2022/11/08 13:12:20;;;;;;;2.75;1.70;;;;;;;;;;5101411;28;20039;-70
2022/11/08 13:14:46;;;;;;;13.43;2.28;;;;;;;;;;5107639;28;20123;-69
2022/11/08 13:17:14;;;;;;;4.22;2.08;;;;;;;;;;5098023;28;20400;-69
2022/11/08 13:19:46;;;;;;;6.97;2.00;;;;;;;;;;5107945;28;20047;-69
2022/11/08 13:22:28;;;;;;;4.22;1.85;;;;;;;;;;5101233;28;20146;-70
2022/11/08 13:24:55;;;;;;;5.88;1.80;;;;;;;;;;5110824;28;20039;-71
2022/11/08 13:27:23;;;;;;;5.15;2.00;;;;;;;;;;5112379;27;20043;-70
2022/11/08 13:29:49;;;;;;;8.40;2.08;;;;;;;;;;5108259;27;20410;-69
2022/11/08 13:32:32;;;;;;;4.07;1.92;;;;;;;;;;5111845;27;20043;-71
2022/11/08 13:34:58;;;;;;;;;;;;;;;;;;5109943;27;20036;-69
2022/11/08 13:37:24;;;;;;;5.53;1.98;;;;;;;;;;5109478;27;20332;-70
2022/11/08 13:39:53;;;;;;;4.50;2.00;;;;;;;;;;5104896;27;20074;-69
2022/11/08 13:42:19;;;;;;;5.20;1.80;;;;;;;;;;5111311;28;20074;-69
2022/11/08 13:44:54;;;;;;;6.85;1.95;;;;;;;;;;5098639;27;20623;-73
2022/11/08 13:47:33;;;;;;;4.57;1.90;;;;;;;;;;5113634;27;20048;-72
2022/11/08 13:50:18;;;;;;;6.72;2.05;;;;;;;;;;5105492;27;20384;-72
2022/11/08 13:52:45;;;;;;;9.50;2.20;;;;;;;;;;5110354;27;20062;-70
2022/11/08 13:55:30;;;;;;;6.30;1.77;;;;;;;;;;5109900;27;20043;-71
2022/11/08 13:58:00;;;;;;;5.35;2.05;;;;;;;;;;5119991;27;20077;-72
2022/11/08 14:00:42;;;;;;;5.90;2.30;;;;;;;;;;5109165;28;20607;-71
2022/11/08 14:03:46;;;;;;;3.70;1.80;;;;;;;;;;5118106;27;20063;-69
2022/11/08 14:06:16;;;;;;;10.38;1.90;;;;;;;;;;5048107;28;20051;-72
2022/11/08 14:09:07;;;;;;;5.45;2.10;;;;;;;;;;5051576;28;20515;-71
2022/11/08 14:11:33;;;;;;;5.13;2.20;;;;;;;;;;5087459;27;20046;-71
2022/11/08 14:14:33;;;;;;;4.57;2.15;;;;;;;;;;5114462;27;20047;-69
2022/11/08 14:17:08;;;;;;;4.43;2.22;;;;;;;;;;5055960;28;20039;-72
2022/11/08 14:19:38;;;;;;;5.40;2.13;;;;;;;;;;5107680;27;20100;-72
2022/11/08 14:22:12;;;;;;;4.30;1.85;;;;;;;;;;5109279;27;20041;-72
2022/11/08 14:24:38;;;;;;;5.28;2.25;;;;;;;;;;5118300;27;20452;-71
2022/11/08 14:27:04;;;;;;;6.80;2.13;;;;;;;;;;5106240;27;20063;-71
2022/11/08 14:29:30;;;;;;;5.30;2.42;;;;;;;;;;5092144;27;20489;-71
2022/11/08 14:32:06;;;;;;;4.53;1.98;;;;;;;;;;5107843;27;20043;-72
2022/11/08 14:34:34;;;;;;;8.43;2.28;;;;;;;;;;5104141;28;20051;-71
2022/11/08 14:37:00;;;;;;;4.28;1.85;;;;;;;;;;5114155;27;20051;-72
2022/11/08 14:39:31;;;;;;;7.88;2.20;;;;;;;;;;5102515;27;20134;-69
2022/11/08 14:41:58;;;;;;;9.45;2.30;;;;;;;;;;5115271;27;20047;-71
2022/11/08 14:44:24;;;;;;;6.18;2.25;;;;;;;;;;5108227;27;20054;-71
2022/11/08 14:46:50;;;;;;;6.93;2.15;;;;;;;;;;5108654;27;20151;-72
2022/11/08 14:49:19;;;;;;;6.53;2.10;;;;;;;;;;5104704;27;20047;-70
2022/11/08 14:51:45;;;;;;;4.57;2.13;;;;;;;;;;5118214;27;20043;-69
2022/11/08 14:54:22;;;;;;;5.72;2.55;;;;;;;;;;5115466;27;20044;-69
2022/11/08 14:56:49;;;;;;;7.80;2.10;;;;;;;;;;5112240;27;20050;-69
2022/11/08 14:59:15;;;;;;;7.03;2.00;;;;;;;;;;5112121;27;20595;-70
2022/11/08 15:01:43;;;;;;;6.72;2.00;;;;;;;;;;5103335;27;20093;-69
2022/11/08 15:04:14;;;;;;;5.50;2.33;;;;;;;;;;5109292;27;20054;-69
2022/11/08 15:06:48;;;;;;;7.15;2.58;;;;;;;;;;5109012;28;20126;-72
2022/11/08 15:09:17;;;;;;;7.15;2.60;;;;;;;;;;5111348;27;20105;-70